Wawasan Ruby — 3EVU7 — position and weather

sailwx.info

Track history (hours):
 
Tides and Currents Weather Stations Pressure Air Temp Water Temp Dewpoint Dewpoint Depression Visibility Wind Speed Wind Dir Waves Ship Positions

Wawasan Ruby

Last reported at 2014-Aug-18 05:33 UTC. Time now 2014-Aug-23 19:54 UTC.
Position N 29°21' W 094°47'.

Length 146 m; draft 6.5 m.

Type: Ship (hazmat cat B). MMSI: 355619000.

Date/timePositionNaut miles runAvg speedWind from/ knotsBaromVisibWave heightAir tempDewpointWater temp
2014-Aug-18 05:33N 29°21' W 094°47'1111.5
2014-Aug-18 04:33N 29°31' W 094°53'1211.9
2014-Aug-18 03:33N 29°41' W 094°59'7 7.0
2014-Aug-18 02:33N 29°44' W 095°07'1 1.3
2014-Aug-18 01:32N 29°44' W 095°08'0 0.0
2014-Aug-18 00:29N 29°44' W 095°08'0 0.0
2014-Aug-17 18:29N 29°44' W 095°08'0 0.0
2014-Aug-17 17:32N 29°44' W 095°08'0 0.0
2014-Aug-17 16:32N 29°44' W 095°08'0 0.0
2014-Aug-17 15:32N 29°44' W 095°08'0 0.0
2014-Aug-17 14:29N 29°44' W 095°08'2 2.5
2014-Aug-17 13:33N 29°45' W 095°06'8 8.3
2014-Aug-17 12:33N 29°40' W 094°58'1312.8
2014-Aug-17 11:33N 29°28' W 094°51'9 0.3
2014-Aug-16 09:12N 29°21' W 094°47'6 8.8
2014-Aug-16 08:33N 29°26' W 094°50'9 8.5
2014-Aug-16 07:33N 29°33' W 094°55'9 9.2
2014-Aug-16 06:34N 29°41' W 094°59'7 7.1
2014-Aug-16 05:34N 29°44' W 095°07'1 1.0
2014-Aug-16 04:32N 29°44' W 095°08'0 0.0
2014-Aug-16 03:32N 29°44' W 095°08'0 0.0
2014-Aug-15 21:33N 29°44' W 095°08'0 0.0
2014-Aug-15 20:27N 29°44' W 095°08'0 0.0
2014-Aug-15 19:33N 29°44' W 095°08'0 0.0
2014-Aug-15 18:33N 29°44' W 095°08'0 0.0
2014-Aug-15 17:30N 29°44' W 095°08'0 0.0
2014-Aug-15 16:33N 29°44' W 095°08'0 0.0
2014-Aug-15 15:33N 29°44' W 095°08'0 0.0
2014-Aug-15 14:33N 29°44' W 095°08'0 0.0
2014-Aug-15 13:33N 29°44' W 095°08'0 0.0
2014-Aug-15 12:33N 29°44' W 095°08'0 0.0
2014-Aug-15 11:33N 29°44' W 095°08'0 0.0
2014-Aug-15 10:33N 29°44' W 095°08'0 0.0
2014-Aug-15 09:33N 29°44' W 095°08'0 0.0
2014-Aug-15 08:33N 29°44' W 095°08'0 0.0
2014-Aug-15 07:33N 29°44' W 095°08'0 0.0
2014-Aug-15 06:33N 29°44' W 095°08'0 0.0
2014-Aug-15 05:33N 29°44' W 095°08'0 0.0
2014-Aug-15 04:33N 29°44' W 095°08'0 0.0
2014-Aug-15 03:33N 29°44' W 095°08'0 0.0
2014-Aug-15 02:33N 29°44' W 095°08'0 0.0
2014-Aug-15 01:33N 29°44' W 095°08'0 0.0
2014-Aug-15 00:33N 29°44' W 095°08'0 0.0
2014-Aug-14 23:33N 29°44' W 095°08'0 0.0
2014-Aug-14 22:33N 29°44' W 095°08'0 0.1
2014-Aug-14 21:33N 29°44' W 095°08'6 5.7
2014-Aug-14 20:33N 29°43' W 095°01'1111.3
2014-Aug-14 19:33N 29°33' W 094°55'1212.2
2014-Aug-14 18:33N 29°22' W 094°48'  
2014-Aug-11 04:14N 29°55' W 090°05'0 0.0
2014-Aug-11 03:31N 29°55' W 090°05'  
Track history (hours):
 
Tides and Currents Weather Stations Pressure Air Temp Water Temp Dewpoint Dewpoint Depression Visibility Wind Speed Wind Dir Waves Ship Positions

Wawasan Ruby

Last reported at 2014-Aug-18 05:33 UTC. Time now 2014-Aug-23 19:54 UTC.
Position N 29°21' W 094°47'.

Length 146 m; draft 6.5 m.

Type: Ship (hazmat cat B). MMSI: 355619000.

Date/timePositionNaut miles runAvg speedWind from/ knotsBaromVisibWave heightAir tempDewpointWater temp
2014-Aug-18 05:33N 29°21' W 094°47'1111.5
2014-Aug-18 04:33N 29°31' W 094°53'1211.9
2014-Aug-18 03:33N 29°41' W 094°59'7 7.0
2014-Aug-18 02:33N 29°44' W 095°07'1 1.3
2014-Aug-18 01:32N 29°44' W 095°08'0 0.0
2014-Aug-18 00:29N 29°44' W 095°08'0 0.0
2014-Aug-17 18:29N 29°44' W 095°08'0 0.0
2014-Aug-17 17:32N 29°44' W 095°08'0 0.0
2014-Aug-17 16:32N 29°44' W 095°08'0 0.0
2014-Aug-17 15:32N 29°44' W 095°08'0 0.0
2014-Aug-17 14:29N 29°44' W 095°08'2 2.5
2014-Aug-17 13:33N 29°45' W 095°06'8 8.3
2014-Aug-17 12:33N 29°40' W 094°58'1312.8
2014-Aug-17 11:33N 29°28' W 094°51'9 0.3
2014-Aug-16 09:12N 29°21' W 094°47'6 8.8
2014-Aug-16 08:33N 29°26' W 094°50'9 8.5
2014-Aug-16 07:33N 29°33' W 094°55'9 9.2
2014-Aug-16 06:34N 29°41' W 094°59'7 7.1
2014-Aug-16 05:34N 29°44' W 095°07'1 1.0
2014-Aug-16 04:32N 29°44' W 095°08'0 0.0
2014-Aug-16 03:32N 29°44' W 095°08'0 0.0
2014-Aug-15 21:33N 29°44' W 095°08'0 0.0
2014-Aug-15 20:27N 29°44' W 095°08'0 0.0
2014-Aug-15 19:33N 29°44' W 095°08'0 0.0
2014-Aug-15 18:33N 29°44' W 095°08'0 0.0
2014-Aug-15 17:30N 29°44' W 095°08'0 0.0
2014-Aug-15 16:33N 29°44' W 095°08'0 0.0
2014-Aug-15 15:33N 29°44' W 095°08'0 0.0
2014-Aug-15 14:33N 29°44' W 095°08'0 0.0
2014-Aug-15 13:33N 29°44' W 095°08'0 0.0
2014-Aug-15 12:33N 29°44' W 095°08'0 0.0
2014-Aug-15 11:33N 29°44' W 095°08'0 0.0
2014-Aug-15 10:33N 29°44' W 095°08'0 0.0
2014-Aug-15 09:33N 29°44' W 095°08'0 0.0
2014-Aug-15 08:33N 29°44' W 095°08'0 0.0
2014-Aug-15 07:33N 29°44' W 095°08'0 0.0
2014-Aug-15 06:33N 29°44' W 095°08'0 0.0
2014-Aug-15 05:33N 29°44' W 095°08'0 0.0
2014-Aug-15 04:33N 29°44' W 095°08'0 0.0
2014-Aug-15 03:33N 29°44' W 095°08'0 0.0
2014-Aug-15 02:33N 29°44' W 095°08'0 0.0
2014-Aug-15 01:33N 29°44' W 095°08'0 0.0
2014-Aug-15 00:33N 29°44' W 095°08'0 0.0
2014-Aug-14 23:33N 29°44' W 095°08'0 0.0
2014-Aug-14 22:33N 29°44' W 095°08'0 0.1
2014-Aug-14 21:33N 29°44' W 095°08'6 5.7
2014-Aug-14 20:33N 29°43' W 095°01'1111.3
2014-Aug-14 19:33N 29°33' W 094°55'1212.2
2014-Aug-14 18:33N 29°22' W 094°48'  
2014-Aug-11 04:14N 29°55' W 090°05'0 0.0
2014-Aug-11 03:31N 29°55' W 090°05'  

Dump ship's entire track history